sensor_id;sensor_type;location;lat;lon;timestamp;pressure;altitude;pressure_sealevel;temperature;humidity
53651;BME280;39552;45.776;15.892;2023-02-10T00:01:08;102531.44;;;-2.19;100.00
53651;BME280;39552;45.776;15.892;2023-02-10T00:03:35;102530.44;;;-1.92;100.00
53651;BME280;39552;45.776;15.892;2023-02-10T00:06:03;102519.00;;;-2.21;100.00
53651;BME280;39552;45.776;15.892;2023-02-10T00:08:30;102531.38;;;-2.22;100.00
53651;BME280;39552;45.776;15.892;2023-02-10T00:10:59;102525.00;;;-2.27;100.00
53651;BME280;39552;45.776;15.892;2023-02-10T00:13:27;102535.66;;;-2.25;100.00
53651;BME280;39552;45.776;15.892;2023-02-10T00:15:56;102531.22;;;-2.26;100.00
53651;BME280;39552;45.776;15.892;2023-02-10T00:18:23;102548.34;;;-2.44;100.00
53651;BME280;39552;45.776;15.892;2023-02-10T00:20:50;102542.16;;;-2.44;100.00
53651;BME280;39552;45.776;15.892;2023-02-10T00:23:17;102529.63;;;-2.50;100.00
53651;BME280;39552;45.776;15.892;2023-02-10T00:25:44;102530.03;;;-2.36;100.00
53651;BME280;39552;45.776;15.892;2023-02-10T00:28:12;102521.63;;;-2.51;100.00
53651;BME280;39552;45.776;15.892;2023-02-10T00:30:39;102524.72;;;-2.65;100.00
53651;BME280;39552;45.776;15.892;2023-02-10T00:33:05;102533.03;;;-2.54;100.00
53651;BME280;39552;45.776;15.892;2023-02-10T00:35:33;102537.19;;;-2.62;100.00
53651;BME280;39552;45.776;15.892;2023-02-10T00:37:59;102533.25;;;-2.75;100.00
53651;BME280;39552;45.776;15.892;2023-02-10T00:40:26;102528.16;;;-2.69;100.00
53651;BME280;39552;45.776;15.892;2023-02-10T00:42:53;102515.19;;;-2.60;100.00
53651;BME280;39552;45.776;15.892;2023-02-10T00:45:21;102534.41;;;-2.38;100.00
53651;BME280;39552;45.776;15.892;2023-02-10T00:47:48;102537.53;;;-2.51;100.00
53651;BME280;39552;45.776;15.892;2023-02-10T00:50:15;102539.63;;;-2.40;100.00
53651;BME280;39552;45.776;15.892;2023-02-10T00:52:41;102543.56;;;-2.27;100.00
53651;BME280;39552;45.776;15.892;2023-02-10T00:55:08;102533.28;;;-2.46;100.00
53651;BME280;39552;45.776;15.892;2023-02-10T00:57:35;102536.56;;;-2.25;100.00
53651;BME280;39552;45.776;15.892;2023-02-10T01:00:02;102548.69;;;-2.33;100.00
53651;BME280;39552;45.776;15.892;2023-02-10T01:02:30;102541.28;;;-2.14;100.00
53651;BME280;39552;45.776;15.892;2023-02-10T01:04:57;102538.94;;;-2.04;100.00
53651;BME280;39552;45.776;15.892;2023-02-10T01:07:24;102535.03;;;-2.17;100.00
53651;BME280;39552;45.776;15.892;2023-02-10T01:09:50;102523.69;;;-2.12;100.00
53651;BME280;39552;45.776;15.892;2023-02-10T01:12:17;102534.41;;;-2.08;100.00
53651;BME280;39552;45.776;15.892;2023-02-10T01:14:44;102531.75;;;-2.38;100.00
53651;BME280;39552;45.776;15.892;2023-02-10T01:17:10;102548.22;;;-2.48;100.00
53651;BME280;39552;45.776;15.892;2023-02-10T01:19:38;102536.56;;;-2.25;100.00
53651;BME280;39552;45.776;15.892;2023-02-10T01:22:05;102532.47;;;-2.13;100.00
53651;BME280;39552;45.776;15.892;2023-02-10T01:24:32;102531.59;;;-2.14;100.00
53651;BME280;39552;45.776;15.892;2023-02-10T01:26:58;102509.69;;;-2.37;100.00
53651;BME280;39552;45.776;15.892;2023-02-10T01:29:25;102512.47;;;-2.32;100.00
53651;BME280;39552;45.776;15.892;2023-02-10T01:31:52;102515.53;;;-2.19;100.00
53651;BME280;39552;45.776;15.892;2023-02-10T01:34:19;102498.78;;;-2.18;100.00
53651;BME280;39552;45.776;15.892;2023-02-10T01:36:47;102506.56;;;-2.22;100.00
53651;BME280;39552;45.776;15.892;2023-02-10T01:39:13;102508.28;;;-2.24;100.00
53651;BME280;39552;45.776;15.892;2023-02-10T01:41:41;102513.28;;;-2.35;100.00
53651;BME280;39552;45.776;15.892;2023-02-10T01:46:49;102506.28;;;-2.33;100.00
53651;BME280;39552;45.776;15.892;2023-02-10T01:49:16;102515.34;;;-2.25;100.00
53651;BME280;39552;45.776;15.892;2023-02-10T01:51:44;102505.09;;;-2.43;100.00
53651;BME280;39552;45.776;15.892;2023-02-10T01:54:14;102505.72;;;-2.51;100.00
53651;BME280;39552;45.776;15.892;2023-02-10T01:56:42;102499.47;;;-2.53;100.00
53651;BME280;39552;45.776;15.892;2023-02-10T01:59:10;102487.72;;;-2.33;100.00
53651;BME280;39552;45.776;15.892;2023-02-10T02:01:37;102491.41;;;-2.58;100.00
53651;BME280;39552;45.776;15.892;2023-02-10T02:04:03;102486.75;;;-2.65;100.00
53651;BME280;39552;45.776;15.892;2023-02-10T02:06:30;102496.09;;;-3.05;100.00
53651;BME280;39552;45.776;15.892;2023-02-10T02:08:57;102498.34;;;-2.90;100.00
53651;BME280;39552;45.776;15.892;2023-02-10T02:11:26;102496.81;;;-2.82;100.00
53651;BME280;39552;45.776;15.892;2023-02-10T02:13:59;102502.47;;;-2.71;100.00
53651;BME280;39552;45.776;15.892;2023-02-10T02:16:32;102505.09;;;-2.43;100.00
53651;BME280;39552;45.776;15.892;2023-02-10T02:19:04;102498.69;;;-2.51;100.00
53651;BME280;39552;45.776;15.892;2023-02-10T02:24:32;102506.41;;;-2.59;100.00
53651;BME280;39552;45.776;15.892;2023-02-10T02:27:09;102500.16;;;-2.61;100.00
53651;BME280;39552;45.776;15.892;2023-02-10T02:32:26;102492.28;;;-2.58;100.00
53651;BME280;39552;45.776;15.892;2023-02-10T02:34:53;102494.94;;;-2.58;100.00
53651;BME280;39552;45.776;15.892;2023-02-10T02:37:22;102503.94;;;-2.52;100.00
53651;BME280;39552;45.776;15.892;2023-02-10T02:39:52;102499.44;;;-2.84;100.00
53651;BME280;39552;45.776;15.892;2023-02-10T02:42:21;102493.63;;;-2.72;100.00
53651;BME280;39552;45.776;15.892;2023-02-10T02:44:50;102496.75;;;-2.85;100.00
53651;BME280;39552;45.776;15.892;2023-02-10T02:47:25;102483.09;;;-2.69;100.00
53651;BME280;39552;45.776;15.892;2023-02-10T02:50:00;102492.28;;;-2.58;100.00
53651;BME280;39552;45.776;15.892;2023-02-10T02:52:35;102504.22;;;-2.72;100.00
53651;BME280;39552;45.776;15.892;2023-02-10T02:55:13;102498.81;;;-2.75;100.00
53651;BME280;39552;45.776;15.892;2023-02-10T02:57:45;102505.69;;;-2.82;100.00
53651;BME280;39552;45.776;15.892;2023-02-10T03:00:16;102486.34;;;-2.79;100.00
53651;BME280;39552;45.776;15.892;2023-02-10T03:02:45;102498.22;;;-2.66;100.00
53651;BME280;39552;45.776;15.892;2023-02-10T03:05:18;102501.00;;;-2.62;100.00
53651;BME280;39552;45.776;15.892;2023-02-10T03:07:45;102495.66;;;-2.63;100.00
53651;BME280;39552;45.776;15.892;2023-02-10T03:12:39;102505.63;;;-2.54;100.00
53651;BME280;39552;45.776;15.892;2023-02-10T03:15:06;102498.94;;;-2.42;100.00
53651;BME280;39552;45.776;15.892;2023-02-10T03:17:33;102501.34;;;-2.49;100.00
53651;BME280;39552;45.776;15.892;2023-02-10T03:19:59;102494.88;;;-2.59;100.00
53651;BME280;39552;45.776;15.892;2023-02-10T03:22:28;102509.75;;;-2.64;100.00
53651;BME280;39552;45.776;15.892;2023-02-10T03:24:54;102504.41;;;-2.66;100.00
53651;BME280;39552;45.776;15.892;2023-02-10T03:27:21;102505.72;;;-2.80;100.00
53651;BME280;39552;45.776;15.892;2023-02-10T03:29:48;102513.38;;;-2.89;100.00
53651;BME280;39552;45.776;15.892;2023-02-10T03:32:14;102507.22;;;-2.88;100.00
53651;BME280;39552;45.776;15.892;2023-02-10T03:34:41;102507.66;;;-2.74;100.00
53651;BME280;39552;45.776;15.892;2023-02-10T03:37:08;102496.63;;;-2.88;100.00
53651;BME280;39552;45.776;15.892;2023-02-10T03:39:36;102520.28;;;-2.94;100.00
53651;BME280;39552;45.776;15.892;2023-02-10T03:42:03;102520.97;;;-2.73;100.00
53651;BME280;39552;45.776;15.892;2023-02-10T03:44:30;102512.06;;;-2.75;100.00
53651;BME280;39552;45.776;15.892;2023-02-10T03:46:57;102510.69;;;-2.91;100.00
53651;BME280;39552;45.776;15.892;2023-02-10T03:49:24;102529.13;;;-2.94;100.00
53651;BME280;39552;45.776;15.892;2023-02-10T03:51:51;102519.72;;;-3.11;100.00
53651;BME280;39552;45.776;15.892;2023-02-10T03:54:17;102512.94;;;-3.03;100.00
53651;BME280;39552;45.776;15.892;2023-02-10T03:56:45;102508.41;;;-2.79;100.00
53651;BME280;39552;45.776;15.892;2023-02-10T03:59:12;102520.06;;;-2.73;100.00
53651;BME280;39552;45.776;15.892;2023-02-10T04:01:39;102519.81;;;-2.81;100.00
53651;BME280;39552;45.776;15.892;2023-02-10T04:04:06;102502.09;;;-2.84;100.00
53651;BME280;39552;45.776;15.892;2023-02-10T04:06:32;102509.28;;;-3.07;100.00
53651;BME280;39552;45.776;15.892;2023-02-10T04:08:59;102512.00;;;-3.31;100.00
53651;BME280;39552;45.776;15.892;2023-02-10T04:11:26;102500.84;;;-3.22;100.00
53651;BME280;39552;45.776;15.892;2023-02-10T04:13:54;102520.22;;;-3.23;100.00
53651;BME280;39552;45.776;15.892;2023-02-10T04:16:21;102519.50;;;-3.45;100.00
53651;BME280;39552;45.776;15.892;2023-02-10T04:18:48;102512.38;;;-3.46;100.00
53651;BME280;39552;45.776;15.892;2023-02-10T04:21:14;102516.81;;;-3.19;100.00
53651;BME280;39552;45.776;15.892;2023-02-10T04:23:41;102526.00;;;-3.08;100.00
53651;BME280;39552;45.776;15.892;2023-02-10T04:26:08;102523.66;;;-3.26;100.00
53651;BME280;39552;45.776;15.892;2023-02-10T04:28:34;102516.22;;;-3.38;100.00
53651;BME280;39552;45.776;15.892;2023-02-10T04:31:03;102524.38;;;-3.57;100.00
53651;BME280;39552;45.776;15.892;2023-02-10T04:33:29;102527.50;;;-3.43;100.00
53651;BME280;39552;45.776;15.892;2023-02-10T04:35:56;102518.81;;;-3.12;100.00
53651;BME280;39552;45.776;15.892;2023-02-10T04:38:23;102502.03;;;-3.40;100.00
53651;BME280;39552;45.776;15.892;2023-02-10T04:40:50;102514.59;;;-3.32;100.00
53651;BME280;39552;45.776;15.892;2023-02-10T04:43:17;102532.13;;;-3.62;100.00
53651;BME280;39552;45.776;15.892;2023-02-10T04:45:44;102539.38;;;-3.56;100.00
53651;BME280;39552;45.776;15.892;2023-02-10T04:48:12;102541.81;;;-3.62;100.00
53651;BME280;39552;45.776;15.892;2023-02-10T04:50:40;102540.34;;;-3.54;100.00
53651;BME280;39552;45.776;15.892;2023-02-10T04:53:06;102539.50;;;-3.53;100.00
53651;BME280;39552;45.776;15.892;2023-02-10T04:55:33;102525.19;;;-3.32;100.00
53651;BME280;39552;45.776;15.892;2023-02-10T04:58:00;102544.53;;;-3.35;100.00
53651;BME280;39552;45.776;15.892;2023-02-10T05:00:27;102525.94;;;-3.37;100.00
53651;BME280;39552;45.776;15.892;2023-02-10T05:02:54;102528.59;;;-3.37;100.00
53651;BME280;39552;45.776;15.892;2023-02-10T05:05:22;102519.56;;;-3.43;100.00
53651;BME280;39552;45.776;15.892;2023-02-10T05:07:49;102545.00;;;-3.47;100.00
53651;BME280;39552;45.776;15.892;2023-02-10T05:10:15;102546.22;;;-3.63;100.00
53651;BME280;39552;45.776;15.892;2023-02-10T05:12:42;102559.50;;;-3.61;100.00
53651;BME280;39552;45.776;15.892;2023-02-10T05:15:09;102564.47;;;-3.70;100.00
53651;BME280;39552;45.776;15.892;2023-02-10T05:17:36;102566.03;;;-3.50;100.00
53651;BME280;39552;45.776;15.892;2023-02-10T05:20:03;102561.97;;;-3.66;100.00
53651;BME280;39552;45.776;15.892;2023-02-10T05:22:31;102581.09;;;-3.73;100.00
53651;BME280;39552;45.776;15.892;2023-02-10T05:25:00;102561.41;;;-3.57;100.00
53651;BME280;39552;45.776;15.892;2023-02-10T05:27:27;102576.97;;;-3.41;100.00
53651;BME280;39552;45.776;15.892;2023-02-10T05:29:53;102574.69;;;-3.30;100.00
53651;BME280;39552;45.776;15.892;2023-02-10T05:32:20;102579.19;;;-3.53;100.00
53651;BME280;39552;45.776;15.892;2023-02-10T05:34:47;102580.03;;;-3.54;100.00
53651;BME280;39552;45.776;15.892;2023-02-10T05:37:14;102583.31;;;-3.61;100.00
53651;BME280;39552;45.776;15.892;2023-02-10T05:39:42;102597.19;;;-3.43;100.00
53651;BME280;39552;45.776;15.892;2023-02-10T05:42:08;102586.19;;;-3.53;100.00
53651;BME280;39552;45.776;15.892;2023-02-10T05:44:35;102581.31;;;-3.43;100.00
53651;BME280;39552;45.776;15.892;2023-02-10T05:47:02;102597.41;;;-3.11;100.00
53651;BME280;39552;45.776;15.892;2023-02-10T05:49:29;102577.66;;;-3.21;100.00
53651;BME280;39552;45.776;15.892;2023-02-10T05:51:55;102581.16;;;-3.22;100.00
53651;BME280;39552;45.776;15.892;2023-02-10T05:54:22;102599.94;;;-3.14;100.00
53651;BME280;39552;45.776;15.892;2023-02-10T05:56:50;102591.13;;;-3.13;100.00
53651;BME280;39552;45.776;15.892;2023-02-10T05:59:17;102604.44;;;-3.11;100.00
53651;BME280;39552;45.776;15.892;2023-02-10T06:01:44;102625.09;;;-3.27;100.00
53651;BME280;39552;45.776;15.892;2023-02-10T06:04:11;102621.72;;;-3.47;100.00
53651;BME280;39552;45.776;15.892;2023-02-10T06:06:37;102623.09;;;-3.34;100.00
53651;BME280;39552;45.776;15.892;2023-02-10T06:09:05;102626.16;;;-3.46;100.00
53651;BME280;39552;45.776;15.892;2023-02-10T06:11:31;102636.16;;;-3.63;100.00
53651;BME280;39552;45.776;15.892;2023-02-10T06:14:00;102638.63;;;-3.67;100.00
53651;BME280;39552;45.776;15.892;2023-02-10T06:16:27;102637.31;;;-3.79;100.00
53651;BME280;39552;45.776;15.892;2023-02-10T06:18:54;102652.69;;;-3.68;100.00
53651;BME280;39552;45.776;15.892;2023-02-10T06:21:20;102657.97;;;-3.44;100.00
53651;BME280;39552;45.776;15.892;2023-02-10T06:23:47;102657.63;;;-3.53;100.00
53651;BME280;39552;45.776;15.892;2023-02-10T06:26:14;102656.13;;;-3.47;100.00
53651;BME280;39552;45.776;15.892;2023-02-10T06:28:41;102649.44;;;-3.61;100.00
53651;BME280;39552;45.776;15.892;2023-02-10T06:31:09;102659.00;;;-3.41;100.00
53651;BME280;39552;45.776;15.892;2023-02-10T06:33:36;102661.84;;;-3.34;100.00
53651;BME280;39552;45.776;15.892;2023-02-10T06:36:04;102669.97;;;-3.54;100.00
53651;BME280;39552;45.776;15.892;2023-02-10T06:38:31;102667.47;;;-3.73;100.00
53651;BME280;39552;45.776;15.892;2023-02-10T06:40:58;102670.66;;;-3.36;100.00
53651;BME280;39552;45.776;15.892;2023-02-10T06:43:25;102674.34;;;-3.79;100.00
53651;BME280;39552;45.776;15.892;2023-02-10T06:45:51;102667.28;;;-3.31;100.00
53651;BME280;39552;45.776;15.892;2023-02-10T06:48:20;102666.53;;;-3.27;100.00
53651;BME280;39552;45.776;15.892;2023-02-10T06:50:46;102659.44;;;-3.52;100.00
53651;BME280;39552;45.776;15.892;2023-02-10T06:53:13;102653.63;;;-3.44;100.00
53651;BME280;39552;45.776;15.892;2023-02-10T06:55:40;102650.22;;;-3.40;100.00
53651;BME280;39552;45.776;15.892;2023-02-10T06:58:07;102665.06;;;-3.19;100.00
53651;BME280;39552;45.776;15.892;2023-02-10T07:00:33;102659.41;;;-3.30;100.00
53651;BME280;39552;45.776;15.892;2023-02-10T07:03:00;102665.47;;;-3.32;100.00
53651;BME280;39552;45.776;15.892;2023-02-10T07:05:28;102685.75;;;-3.33;100.00
53651;BME280;39552;45.776;15.892;2023-02-10T07:07:55;102680.78;;;-3.24;100.00
53651;BME280;39552;45.776;15.892;2023-02-10T07:10:22;102670.81;;;-3.07;100.00
53651;BME280;39552;45.776;15.892;2023-02-10T07:12:49;102691.47;;;-2.97;100.00
53651;BME280;39552;45.776;15.892;2023-02-10T07:15:15;102685.63;;;-3.12;100.00
53651;BME280;39552;45.776;15.892;2023-02-10T07:17:42;102692.06;;;-2.80;100.00
53651;BME280;39552;45.776;15.892;2023-02-10T07:20:11;102690.41;;;-3.50;100.00
53651;BME280;39552;45.776;15.892;2023-02-10T07:22:40;102703.06;;;-3.17;100.00
53651;BME280;39552;45.776;15.892;2023-02-10T07:25:08;102708.84;;;-2.79;100.00
53651;BME280;39552;45.776;15.892;2023-02-10T07:27:37;102696.00;;;-2.67;100.00
53651;BME280;39552;45.776;15.892;2023-02-10T07:30:04;102702.06;;;-2.71;100.00
53651;BME280;39552;45.776;15.892;2023-02-10T07:32:30;102709.66;;;-2.82;100.00
53651;BME280;39552;45.776;15.892;2023-02-10T07:34:58;102694.38;;;-2.89;100.00
53651;BME280;39552;45.776;15.892;2023-02-10T07:37:24;102705.91;;;-2.61;100.00
53651;BME280;39552;45.776;15.892;2023-02-10T07:39:52;102691.53;;;-2.42;100.00
53651;BME280;39552;45.776;15.892;2023-02-10T07:42:19;102691.97;;;-2.30;100.00
53651;BME280;39552;45.776;15.892;2023-02-10T07:44:46;102682.38;;;-2.25;100.00
53651;BME280;39552;45.776;15.892;2023-02-10T07:47:13;102678.38;;;-2.12;100.00
53651;BME280;39552;45.776;15.892;2023-02-10T07:49:39;102678.38;;;-2.12;100.00
53651;BME280;39552;45.776;15.892;2023-02-10T07:52:06;102697.50;;;-1.95;100.00
53651;BME280;39552;45.776;15.892;2023-02-10T07:57:01;102698.19;;;-2.01;100.00
53651;BME280;39552;45.776;15.892;2023-02-10T07:59:28;102692.13;;;-1.96;100.00
53651;BME280;39552;45.776;15.892;2023-02-10T08:01:54;102696.03;;;-1.84;100.00
53651;BME280;39552;45.776;15.892;2023-02-10T08:04:21;102691.53;;;-1.86;100.00
53651;BME280;39552;45.776;15.892;2023-02-10T08:06:48;102675.16;;;-1.73;100.00
53651;BME280;39552;45.776;15.892;2023-02-10T08:09:15;102682.81;;;-1.53;100.00
53651;BME280;39552;45.776;15.892;2023-02-10T08:11:41;102684.75;;;-1.48;100.00
53651;BME280;39552;45.776;15.892;2023-02-10T08:14:10;102678.66;;;-1.44;100.00
53651;BME280;39552;45.776;15.892;2023-02-10T08:16:36;102664.03;;;-1.29;100.00
53651;BME280;39552;45.776;15.892;2023-02-10T08:19:03;102667.22;;;-1.09;100.00
53651;BME280;39552;45.776;15.892;2023-02-10T08:21:30;102654.00;;;-1.08;100.00
53651;BME280;39552;45.776;15.892;2023-02-10T08:23:57;102647.84;;;-1.05;100.00
53651;BME280;39552;45.776;15.892;2023-02-10T08:26:24;102645.88;;;-1.12;100.00
53651;BME280;39552;45.776;15.892;2023-02-10T08:28:51;102666.72;;;-0.96;100.00
53651;BME280;39552;45.776;15.892;2023-02-10T08:31:20;102674.75;;;-0.93;100.00
53651;BME280;39552;45.776;15.892;2023-02-10T08:33:47;102678.53;;;-0.83;100.00
53651;BME280;39552;45.776;15.892;2023-02-10T08:36:16;102686.44;;;-0.86;100.00
53651;BME280;39552;45.776;15.892;2023-02-10T08:38:44;102674.00;;;-0.87;100.00
53651;BME280;39552;45.776;15.892;2023-02-10T08:41:11;102684.97;;;-0.75;100.00
53651;BME280;39552;45.776;15.892;2023-02-10T08:43:38;102690.28;;;-0.75;100.00
53651;BME280;39552;45.776;15.892;2023-02-10T08:46:05;102686.91;;;-0.68;100.00
53651;BME280;39552;45.776;15.892;2023-02-10T08:48:33;102687.16;;;-0.58;100.00
53651;BME280;39552;45.776;15.892;2023-02-10T08:51:00;102697.88;;;-0.55;100.00
53651;BME280;39552;45.776;15.892;2023-02-10T08:53:28;102691.81;;;-0.50;100.00
53651;BME280;39552;45.776;15.892;2023-02-10T08:55:56;102680.00;;;-0.61;100.00
53651;BME280;39552;45.776;15.892;2023-02-10T08:58:26;102690.06;;;-0.49;100.00
53651;BME280;39552;45.776;15.892;2023-02-10T09:00:53;102702.50;;;-0.48;100.00
53651;BME280;39552;45.776;15.892;2023-02-10T09:03:20;102693.00;;;-0.38;100.00
53651;BME280;39552;45.776;15.892;2023-02-10T09:05:48;102703.22;;;-0.19;100.00
53651;BME280;39552;45.776;15.892;2023-02-10T09:08:16;102697.72;;;-0.25;100.00
53651;BME280;39552;45.776;15.892;2023-02-10T09:10:45;102711.25;;;-0.16;100.00
53651;BME280;39552;45.776;15.892;2023-02-10T09:13:12;102715.59;;;-0.20;100.00
53651;BME280;39552;45.776;15.892;2023-02-10T09:15:40;102718.91;;;0.07;100.00
53651;BME280;39552;45.776;15.892;2023-02-10T09:18:08;102716.94;;;-0.01;100.00
53651;BME280;39552;45.776;15.892;2023-02-10T09:20:35;102715.31;;;0.05;100.00
53651;BME280;39552;45.776;15.892;2023-02-10T09:23:04;102716.56;;;-0.16;100.00
53651;BME280;39552;45.776;15.892;2023-02-10T09:25:31;102723.59;;;-0.20;100.00
53651;BME280;39552;45.776;15.892;2023-02-10T09:27:58;102727.91;;;-0.25;100.00
53651;BME280;39552;45.776;15.892;2023-02-10T09:30:25;102725.63;;;-0.09;100.00
53651;BME280;39552;45.776;15.892;2023-02-10T09:32:53;102729.81;;;0.19;100.00
53651;BME280;39552;45.776;15.892;2023-02-10T09:35:20;102732.66;;;0.27;100.00
53651;BME280;39552;45.776;15.892;2023-02-10T09:37:46;102713.63;;;0.08;100.00
53651;BME280;39552;45.776;15.892;2023-02-10T09:40:19;102730.34;;;0.42;100.00
53651;BME280;39552;45.776;15.892;2023-02-10T09:43:07;102731.97;;;0.35;100.00
53651;BME280;39552;45.776;15.892;2023-02-10T09:45:40;102736.09;;;0.61;100.00
53651;BME280;39552;45.776;15.892;2023-02-10T09:48:19;102731.59;;;0.59;100.00
53651;BME280;39552;45.776;15.892;2023-02-10T09:50:57;102729.56;;;0.90;100.00
53651;BME280;39552;45.776;15.892;2023-02-10T09:53:28;102721.03;;;0.63;100.00
53651;BME280;39552;45.776;15.892;2023-02-10T09:55:59;102735.63;;;0.82;100.00
53651;BME280;39552;45.776;15.892;2023-02-10T09:58:32;102737.25;;;0.75;100.00
53651;BME280;39552;45.776;15.892;2023-02-10T10:01:03;102741.78;;;0.77;100.00
53651;BME280;39552;45.776;15.892;2023-02-10T10:03:41;102754.00;;;0.68;100.00
53651;BME280;39552;45.776;15.892;2023-02-10T10:06:18;102749.94;;;0.85;100.00
53651;BME280;39552;45.776;15.892;2023-02-10T10:08:54;102742.13;;;0.96;100.00
53651;BME280;39552;45.776;15.892;2023-02-10T10:11:33;102739.56;;;1.01;100.00
53651;BME280;39552;45.776;15.892;2023-02-10T10:14:03;102736.91;;;1.02;100.00
53651;BME280;39552;45.776;15.892;2023-02-10T10:16:45;102740.84;;;1.21;100.00
53651;BME280;39552;45.776;15.892;2023-02-10T10:19:22;102734.47;;;1.13;100.00
53651;BME280;39552;45.776;15.892;2023-02-10T10:22:04;102733.38;;;1.02;100.00
53651;BME280;39552;45.776;15.892;2023-02-10T10:24:42;102727.75;;;1.35;100.00
53651;BME280;39552;45.776;15.892;2023-02-10T10:27:23;102726.31;;;1.54;100.00
53651;BME280;39552;45.776;15.892;2023-02-10T10:29:53;102711.97;;;1.46;100.00
53651;BME280;39552;45.776;15.892;2023-02-10T10:32:32;102714.59;;;1.44;100.00
53651;BME280;39552;45.776;15.892;2023-02-10T10:35:02;102711.22;;;1.53;100.00
53651;BME280;39552;45.776;15.892;2023-02-10T10:37:30;102703.47;;;1.68;100.00
53651;BME280;39552;45.776;15.892;2023-02-10T10:39:59;102701.75;;;1.73;100.00
53651;BME280;39552;45.776;15.892;2023-02-10T10:42:40;102698.50;;;1.91;100.00
53651;BME280;39552;45.776;15.892;2023-02-10T10:45:13;102676.00;;;1.75;100.00
53651;BME280;39552;45.776;15.892;2023-02-10T10:47:45;102678.91;;;1.91;100.00
53651;BME280;39552;45.776;15.892;2023-02-10T10:50:14;102682.59;;;2.01;99.61
53651;BME280;39552;45.776;15.892;2023-02-10T10:52:43;102684.44;;;2.03;96.80
53651;BME280;39552;45.776;15.892;2023-02-10T10:55:13;102684.56;;;2.11;96.60
53651;BME280;39552;45.776;15.892;2023-02-10T10:57:43;102671.34;;;2.23;97.09
53651;BME280;39552;45.776;15.892;2023-02-10T11:00:18;102672.03;;;2.08;95.45
53651;BME280;39552;45.776;15.892;2023-02-10T11:02:57;102671.34;;;2.23;94.85
53651;BME280;39552;45.776;15.892;2023-02-10T11:05:28;102676.59;;;2.15;93.91
53651;BME280;39552;45.776;15.892;2023-02-10T11:07:55;102666.75;;;2.11;90.00
53651;BME280;39552;45.776;15.892;2023-02-10T11:10:25;102674.97;;;2.27;89.35
53651;BME280;39552;45.776;15.892;2023-02-10T11:12:54;102669.06;;;2.49;92.54
53651;BME280;39552;45.776;15.892;2023-02-10T11:15:34;102658.31;;;2.46;91.60
53651;BME280;39552;45.776;15.892;2023-02-10T11:18:05;102665.44;;;2.49;86.45
53651;BME280;39552;45.776;15.892;2023-02-10T11:20:34;102643.25;;;2.54;84.74
53651;BME280;39552;45.776;15.892;2023-02-10T11:23:03;102631.56;;;2.45;83.95
53651;BME280;39552;45.776;15.892;2023-02-10T11:25:33;102638.75;;;2.50;87.14
53651;BME280;39552;45.776;15.892;2023-02-10T11:28:01;102636.88;;;2.40;86.41
53651;BME280;39552;45.776;15.892;2023-02-10T11:30:31;102637.25;;;2.74;86.56
53651;BME280;39552;45.776;15.892;2023-02-10T11:32:59;102638.25;;;2.82;86.04
53651;BME280;39552;45.776;15.892;2023-02-10T11:35:27;102632.91;;;2.84;85.88
53651;BME280;39552;45.776;15.892;2023-02-10T11:37:56;102630.19;;;2.79;83.74
53651;BME280;39552;45.776;15.892;2023-02-10T11:40:27;102614.03;;;2.70;82.34
53651;BME280;39552;45.776;15.892;2023-02-10T11:42:56;102620.41;;;2.81;84.71
53651;BME280;39552;45.776;15.892;2023-02-10T11:45:25;102622.28;;;2.90;84.58
53651;BME280;39552;45.776;15.892;2023-02-10T11:48:03;102628.72;;;3.07;85.22
53651;BME280;39552;45.776;15.892;2023-02-10T11:50:33;102623.22;;;2.95;83.71
53651;BME280;39552;45.776;15.892;2023-02-10T11:53:00;102630.22;;;2.84;83.54
53651;BME280;39552;45.776;15.892;2023-02-10T11:55:33;102611.47;;;2.79;82.89
53651;BME280;39552;45.776;15.892;2023-02-10T11:58:20;102608.97;;;2.94;83.01
53651;BME280;39552;45.776;15.892;2023-02-10T12:01:01;102615.34;;;3.10;82.30
53651;BME280;39552;45.776;15.892;2023-02-10T12:03:43;102610.88;;;3.11;82.54
53651;BME280;39552;45.776;15.892;2023-02-10T12:06:18;102604.63;;;3.06;80.26
53651;BME280;39552;45.776;15.892;2023-02-10T12:09:07;102589.53;;;3.14;80.70
53651;BME280;39552;45.776;15.892;2023-02-10T12:11:44;102577.94;;;3.13;81.84
53651;BME280;39552;45.776;15.892;2023-02-10T12:14:28;102586.97;;;3.28;82.59
53651;BME280;39552;45.776;15.892;2023-02-10T12:17:05;102598.63;;;3.38;82.18
53651;BME280;39552;45.776;15.892;2023-02-10T12:19:49;102595.06;;;3.35;83.07
53651;BME280;39552;45.776;15.892;2023-02-10T12:22:25;102578.00;;;3.21;81.82
53651;BME280;39552;45.776;15.892;2023-02-10T12:25:05;102583.34;;;3.24;82.64
53651;BME280;39552;45.776;15.892;2023-02-10T12:27:44;102584.25;;;3.23;81.26
53651;BME280;39552;45.776;15.892;2023-02-10T12:33:24;102574.44;;;3.22;78.83
53651;BME280;39552;45.776;15.892;2023-02-10T12:36:05;102578.94;;;3.28;79.14
53651;BME280;39552;45.776;15.892;2023-02-10T12:38:44;102574.53;;;3.34;79.84
53651;BME280;39552;45.776;15.892;2023-02-10T12:41:19;102576.25;;;3.28;80.24
53651;BME280;39552;45.776;15.892;2023-02-10T12:43:58;102569.25;;;3.45;82.29
53651;BME280;39552;45.776;15.892;2023-02-10T12:46:36;102555.00;;;3.49;79.91
53651;BME280;39552;45.776;15.892;2023-02-10T12:49:20;102563.97;;;3.50;78.12
53651;BME280;39552;45.776;15.892;2023-02-10T12:51:54;102554.25;;;3.70;78.72
53651;BME280;39552;45.776;15.892;2023-02-10T12:54:27;102548.00;;;3.65;77.96
53651;BME280;39552;45.776;15.892;2023-02-10T12:57:13;102540.88;;;3.67;79.26
53651;BME280;39552;45.776;15.892;2023-02-10T12:59:49;102530.16;;;3.66;78.18
53651;BME280;39552;45.776;15.892;2023-02-10T13:02:21;102553.38;;;3.74;75.93